Погода Эстелина неделю

Эстели, Никарагуа

02 - 08 марта
  • 02марта
    Сегодня
    +16°
    +30°
    Облачно с прояснениями
    ВремяПогодаТемператураВлажностьДавлениеВетер, м/сВероятность осадков
    00:00Облачно с прояснениями+20°C86 %692 мм4.1 м/с5 %
    03:00Практически безоблачно+19°C94 %690 мм2.9 м/с6 %
    06:00Облачно с прояснениями+19°C90 %691 мм3.7 м/с13 %
    09:00Облачно с прояснениями+25°C56 %693 мм5.9 м/с19 %
    12:00Небольшая облачность+28°C35 %693 мм4.8 м/с6 %
    15:00Облачно с прояснениями+30°C30 %691 мм4.1 м/с2 %
    18:00Ясно и безоблачно+28°C41 %691 мм4.4 м/с2 %
    21:00Ясно и безоблачно+23°C59 %691 мм4.6 м/с2 %
  • 03марта
    Воскресенье
    +18°
    +32°
    Ясно и безоблачно
    ВремяПогодаТемператураВлажностьДавлениеВетер, м/сВероятность осадков
    00:00Ясно и безоблачно+19°C81 %691 мм1.9 м/с2 %
    03:00Ясно и безоблачно+18°C88 %690 мм1.6 м/с2 %
    06:00Ясно и безоблачно+17°C96 %690 мм1.9 м/с2 %
    09:00Ясно и безоблачно+24°C44 %693 мм3.5 м/с2 %
    12:00Ясно и безоблачно+29°C20 %692 мм3.8 м/с2 %
    15:00Ясно и безоблачно+31°C22 %690 мм3.7 м/с2 %
    18:00Ясно и безоблачно+28°C35 %690 мм3.3 м/с2 %
    21:00Ясно и безоблачно+23°C57 %691 мм0.4 м/с2 %
  • 04марта
    Понедельник
    +17°
    +32°
    Небольшая облачность
    ВремяПогодаТемператураВлажностьДавлениеВетер, м/сВероятность осадков
    00:00Ясно и безоблачно+20°C81 %690 мм1.1 м/с2 %
    03:00Облачно с прояснениями+20°C91 %689 мм1.4 м/с3 %
    06:00Небольшая облачность+19°C89 %690 мм2.2 м/с3 %
    09:00Ясно и безоблачно+24°C54 %692 мм3.3 м/с3 %
    12:00Практически безоблачно+30°C32 %691 мм3.2 м/с4 %
    15:00Небольшая облачность+32°C28 %689 мм3.5 м/с3 %
    18:00Ясно и безоблачно+28°C31 %689 мм3.2 м/с2 %
    21:00Ясно и безоблачно+23°C50 %690 мм0.9 м/с2 %
  • 05марта
    Вторник
    +17°
    +33°
    Практически безоблачно
    ВремяПогодаТемператураВлажностьДавлениеВетер, м/сВероятность осадков
    00:00Ясно и безоблачно+20°C61 %689 мм1.0 м/с2 %
    03:00Ясно и безоблачно+18°C79 %688 мм1.1 м/с2 %
    06:00Ясно и безоблачно+17°C92 %689 мм1.4 м/с2 %
    09:00Ясно и безоблачно+24°C41 %691 мм3.2 м/с2 %
    12:00Ясно и безоблачно+30°C37 %690 мм3.5 м/с2 %
    15:00Практически безоблачно+32°C29 %688 мм2.7 м/с2 %
    18:00Небольшая облачность+29°C39 %688 мм2.6 м/с2 %
    21:00Практически безоблачно+24°C61 %690 мм0.4 м/с2 %
Мы используем cookies
Соглашаюсь